Time;durP1;ratioP1;P1;durP2;ratioP2;P2;SDS_P1;SDS_P2;PMS_P1;PMS_P2;Temp;Humidity;BMP_temperature;BMP_pressure;BME280_temperature;BME280_humidity;BME280_pressure;Samples;Min_cycle;Max_cycle;Signal;HPM_P1;HPM_P2
2023/06/20 00:00:16;;;;;;;5.75;3.60;;;20.20;99.90;;;;;;5000892;28;20037;-87
2023/06/20 00:02:42;;;;;;;8.18;4.07;;;20.20;99.90;;;;;;5004781;28;20022;-87
2023/06/20 00:05:07;;;;;;;6.85;3.70;;;20.20;99.90;;;;;;5019331;28;20040;-87
2023/06/20 00:07:33;;;;;;;7.85;3.83;;;20.20;99.90;;;;;;4997236;28;20026;-88
2023/06/20 00:09:59;;;;;;;5.88;3.67;;;20.30;99.90;;;;;;4997458;28;20025;-87
2023/06/20 00:12:25;;;;;;;7.97;3.95;;;20.50;99.90;;;;;;4995862;28;20521;-86
2023/06/20 00:14:51;;;;;;;5.22;3.30;;;20.60;99.90;;;;;;4977816;28;20054;-87
2023/06/20 00:17:17;;;;;;;3.95;3.15;;;20.70;99.90;;;;;;4993892;28;20066;-88
2023/06/20 00:19:42;;;;;;;8.98;3.88;;;20.70;99.90;;;;;;4994893;28;20029;-87
2023/06/20 00:22:08;;;;;;;7.70;3.70;;;20.70;99.90;;;;;;4993470;28;20076;-87
2023/06/20 00:24:33;;;;;;;4.38;3.45;;;20.90;99.90;;;;;;4992894;28;20080;-87
2023/06/20 00:27:03;;;;;;;11.13;4.30;;;20.90;99.90;;;;;;4993801;28;20113;-87
2023/06/20 00:29:28;;;;;;;9.20;3.55;;;21.00;99.90;;;;;;4992736;28;20030;-87
2023/06/20 00:31:54;;;;;;;5.70;3.20;;;21.10;99.90;;;;;;4995202;28;20137;-87
2023/06/20 00:34:20;;;;;;;6.07;2.95;;;21.00;99.90;;;;;;4993761;28;20030;-87
2023/06/20 00:36:46;;;;;;;12.50;3.90;;;21.00;99.90;;;;;;4993888;28;20022;-87
2023/06/20 00:39:11;;;;;;;6.22;3.60;;;20.90;99.90;;;;;;4992632;28;20045;-86
2023/06/20 00:41:38;;;;;;;16.17;4.20;;;20.80;99.90;;;;;;4994736;28;20033;-86
2023/06/20 00:44:05;;;;;;;5.97;3.65;;;20.70;99.90;;;;;;4992547;28;20030;-86
2023/06/20 00:46:40;;;;;;;6.68;3.45;;;20.60;99.90;;;;;;4994501;28;20022;-87
2023/06/20 00:49:07;;;;;;;6.88;3.47;;;20.50;99.90;;;;;;4994568;28;20065;-87
2023/06/20 00:51:34;;;;;;;8.15;4.05;;;20.40;99.90;;;;;;4993168;28;20049;-87
2023/06/20 00:54:01;;;;;;;5.35;3.60;;;20.20;99.90;;;;;;4993619;28;20026;-87
2023/06/20 00:56:28;;;;;;;6.65;4.68;;;20.10;99.90;;;;;;4994175;28;20027;-85
2023/06/20 00:58:53;;;;;;;4.35;3.03;;;20.00;99.90;;;;;;4992584;28;20034;-87
2023/06/20 01:01:21;;;;;;;5.10;4.15;;;20.00;99.90;;;;;;4998574;28;20495;-87
2023/06/20 01:03:49;;;;;;;6.43;4.10;;;19.90;99.90;;;;;;4993286;28;20058;-87
2023/06/20 01:06:21;;;;;;;6.22;3.78;;;19.80;99.90;;;;;;4994205;28;20026;-87
2023/06/20 01:09:05;;;;;;;4.65;3.40;;;19.60;99.90;;;;;;4992960;28;20031;-87
2023/06/20 01:11:53;;;;;;;9.35;3.88;;;19.50;99.90;;;;;;4992168;28;20027;-86
2023/06/20 01:14:51;;;;;;;5.63;4.25;;;19.40;99.90;;;;;;4992921;28;20050;-86
2023/06/20 01:17:24;;;;;;;9.23;3.95;;;19.40;99.90;;;;;;4976283;28;20034;-87
2023/06/20 01:20:04;;;;;;;6.45;4.10;;;19.30;99.90;;;;;;4993035;28;20041;-87
2023/06/20 01:22:34;;;;;;;6.15;3.97;;;19.20;99.90;;;;;;4992874;28;20029;-87
2023/06/20 01:25:05;;;;;;;5.43;3.83;;;19.10;99.90;;;;;;4994013;28;20039;-87
2023/06/20 01:27:59;;;;;;;6.22;3.95;;;19.00;99.90;;;;;;4993918;28;20084;-88
2023/06/20 01:30:36;;;;;;;5.70;3.70;;;19.00;99.90;;;;;;4992583;28;20109;-87
2023/06/20 01:33:04;;;;;;;6.43;3.42;;;18.90;99.90;;;;;;4992475;28;20043;-88
2023/06/20 01:35:34;;;;;;;4.85;4.00;;;18.90;99.90;;;;;;4992789;28;20046;-86
2023/06/20 01:38:06;;;;;;;6.78;4.38;;;18.80;99.90;;;;;;4993029;28;20023;-87
2023/06/20 01:40:34;;;;;;;9.68;4.88;;;18.80;99.90;;;;;;4992701;28;20084;-87
2023/06/20 01:43:02;;;;;;;9.15;3.40;;;18.70;99.90;;;;;;4993137;28;20030;-87
2023/06/20 01:45:32;;;;;;;7.03;4.28;;;18.60;99.90;;;;;;4992939;28;20038;-87
2023/06/20 01:48:02;;;;;;;5.13;4.07;;;18.50;99.90;;;;;;4992116;28;20030;-87
2023/06/20 01:50:29;;;;;;;6.07;4.07;;;18.50;99.90;;;;;;4991348;28;20088;-87
2023/06/20 01:52:57;;;;;;;5.80;3.92;;;18.50;99.90;;;;;;4992434;28;20030;-88
2023/06/20 01:55:24;;;;;;;6.32;4.00;;;18.50;99.90;;;;;;4992383;28;20022;-87
2023/06/20 01:57:54;;;;;;;7.63;3.90;;;18.40;99.90;;;;;;4992362;28;20035;-87
2023/06/20 02:00:23;;;;;;;7.65;3.78;;;18.40;99.90;;;;;;4992657;28;20030;-87
2023/06/20 02:02:50;;;;;;;5.13;3.78;;;18.40;99.90;;;;;;4992408;28;20035;-87
2023/06/20 02:05:17;;;;;;;5.18;3.75;;;18.40;99.90;;;;;;4993711;28;20102;-87
2023/06/20 02:07:44;;;;;;;5.53;3.47;;;18.40;99.90;;;;;;4992998;28;20086;-85
2023/06/20 02:10:13;;;;;;;7.88;4.47;;;18.40;99.90;;;;;;4991842;28;20035;-87
2023/06/20 02:12:41;;;;;;;9.40;4.10;;;18.30;99.90;;;;;;4991400;28;20039;-88
2023/06/20 02:15:08;;;;;;;8.45;4.68;;;18.30;99.90;;;;;;4992458;28;20046;-87
2023/06/20 02:17:35;;;;;;;7.65;4.00;;;18.20;99.90;;;;;;4995516;28;20030;-86
2023/06/20 02:20:01;;;;;;;5.90;3.70;;;18.20;99.90;;;;;;4996190;28;20066;-87
2023/06/20 02:22:27;;;;;;;7.88;4.38;;;18.20;99.90;;;;;;4997462;28;20053;-88
2023/06/20 02:24:59;;;;;;;7.32;4.45;;;18.10;99.90;;;;;;4997418;28;20084;-86
2023/06/20 02:27:26;;;;;;;5.47;4.30;;;18.10;99.90;;;;;;4996287;28;20029;-87
2023/06/20 02:29:53;;;;;;;6.40;4.30;;;18.10;99.90;;;;;;4996053;28;20153;-87
2023/06/20 02:32:20;;;;;;;7.55;4.38;;;18.00;99.90;;;;;;4997286;28;20073;-85
2023/06/20 02:34:48;;;;;;;7.60;4.75;;;18.00;99.90;;;;;;4995911;28;20434;-87
2023/06/20 02:37:15;;;;;;;5.72;4.43;;;18.00;99.90;;;;;;4995235;28;20034;-87
2023/06/20 02:39:40;;;;;;;6.82;5.03;;;17.90;99.90;;;;;;4996572;28;20030;-86
2023/06/20 02:42:06;;;;;;;6.90;4.28;;;17.90;99.90;;;;;;4996819;28;20571;-87
2023/06/20 02:44:32;;;;;;;8.10;4.53;;;17.90;99.90;;;;;;4995929;28;20027;-87
2023/06/20 02:47:00;;;;;;;8.68;4.40;;;17.80;99.90;;;;;;4996935;28;20070;-87
2023/06/20 02:49:57;;;;;;;6.60;4.45;;;17.80;99.90;;;;;;4995872;28;20030;-85
2023/06/20 02:52:37;;;;;;;9.32;5.53;;;17.90;99.90;;;;;;4995622;28;20034;-86
2023/06/20 02:55:17;;;;;;;8.45;4.32;;;17.80;99.90;;;;;;4997775;28;20039;-87
2023/06/20 02:57:55;;;;;;;8.48;4.72;;;17.80;99.90;;;;;;5001909;28;20031;-87
2023/06/20 03:00:22;;;;;;;7.97;4.57;;;17.80;99.90;;;;;;4995846;28;20025;-88
2023/06/20 03:02:59;;;;;;;8.63;3.95;;;17.70;99.90;;;;;;4995698;28;20026;-87
2023/06/20 03:05:28;;;;;;;7.07;4.30;;;17.80;99.90;;;;;;4996655;28;20070;-87
2023/06/20 03:07:55;;;;;;;8.55;4.95;;;17.70;99.90;;;;;;4995257;28;20037;-87
2023/06/20 03:10:23;;;;;;;7.38;4.30;;;17.70;99.90;;;;;;4996157;28;20034;-86
2023/06/20 03:12:48;;;;;;;5.93;4.45;;;17.70;99.90;;;;;;4996440;28;20073;-87
2023/06/20 03:15:14;;;;;;;7.50;3.90;;;17.80;99.90;;;;;;4994939;28;20050;-87
2023/06/20 03:17:40;;;;;;;9.48;4.20;;;17.80;99.90;;;;;;5000785;28;20026;-85
2023/06/20 03:20:08;;;;;;;8.27;3.97;;;17.90;99.90;;;;;;5002869;28;20049;-87
2023/06/20 03:22:34;;;;;;;9.32;4.55;;;17.90;99.90;;;;;;5005084;28;20057;-86
2023/06/20 03:24:59;;;;;;;7.25;4.57;;;18.00;99.90;;;;;;4994291;28;20030;-86
2023/06/20 03:27:25;;;;;;;7.80;4.13;;;18.00;99.90;;;;;;4994564;28;20026;-87
2023/06/20 03:29:50;;;;;;;7.28;3.90;;;18.00;99.90;;;;;;4994702;28;20446;-86
2023/06/20 03:32:16;;;;;;;5.05;3.85;;;18.10;99.90;;;;;;4994817;28;20391;-87
2023/06/20 03:34:42;;;;;;;7.57;3.63;;;18.20;99.90;;;;;;4994943;28;20022;-86
2023/06/20 03:37:07;;;;;;;7.50;4.75;;;18.20;99.90;;;;;;4994912;28;20589;-87
2023/06/20 03:39:33;;;;;;;6.60;4.47;;;18.30;99.90;;;;;;4994800;28;20506;-86
2023/06/20 03:41:58;;;;;;;8.63;3.83;;;18.30;99.90;;;;;;4994133;28;20118;-85
2023/06/20 03:44:24;;;;;;;4.70;3.53;;;18.40;99.90;;;;;;4993950;28;20121;-87
2023/06/20 03:46:50;;;;;;;7.18;3.80;;;18.40;99.90;;;;;;4994587;28;20491;-86
2023/06/20 03:49:15;;;;;;;6.40;3.65;;;18.50;99.90;;;;;;4995658;28;20026;-87
2023/06/20 03:51:41;;;;;;;5.50;3.47;;;18.60;99.90;;;;;;4994522;28;20074;-84
2023/06/20 03:54:07;;;;;;;5.72;3.47;;;18.70;99.90;;;;;;4994693;28;20036;-86
2023/06/20 03:56:32;;;;;;;6.28;3.92;;;18.70;99.90;;;;;;4994493;28;20026;-86
2023/06/20 03:58:58;;;;;;;6.57;3.72;;;18.80;99.90;;;;;;4994267;28;20380;-87
2023/06/20 04:01:24;;;;;;;7.85;3.97;;;18.90;99.90;;;;;;4994583;28;20499;-88
2023/06/20 04:03:50;;;;;;;8.88;3.65;;;19.00;99.90;;;;;;4994018;28;20030;-85
2023/06/20 04:06:16;;;;;;;6.47;4.13;;;19.20;99.90;;;;;;4994109;28;20031;-87
2023/06/20 04:08:42;;;;;;;6.57;3.60;;;19.40;99.90;;;;;;4994502;28;20036;-87
2023/06/20 04:11:08;;;;;;;5.40;3.38;;;19.60;99.90;;;;;;4994086;28;20042;-86
2023/06/20 04:13:34;;;;;;;8.82;4.13;;;19.90;99.90;;;;;;4996707;28;20107;-86
2023/06/20 04:15:59;;;;;;;8.73;4.22;;;20.10;99.90;;;;;;5014471;28;20113;-87
2023/06/20 04:18:25;;;;;;;8.60;3.92;;;20.10;99.90;;;;;;5014550;28;20052;-86
2023/06/20 04:20:51;;;;;;;5.40;3.90;;;20.20;99.90;;;;;;4997225;28;20029;-86
2023/06/20 04:23:16;;;;;;;6.60;4.35;;;20.20;99.90;;;;;;4997171;28;20034;-87
2023/06/20 04:25:42;;;;;;;9.13;4.47;;;20.30;99.90;;;;;;5014570;28;20030;-86
2023/06/20 04:28:07;;;;;;;7.57;3.80;;;20.40;99.90;;;;;;4997303;28;20125;-86
2023/06/20 04:30:33;;;;;;;8.82;4.40;;;20.50;99.90;;;;;;4996187;28;20032;-85
2023/06/20 04:32:59;;;;;;;12.20;4.32;;;20.60;99.90;;;;;;4994625;28;20506;-86
2023/06/20 04:35:24;;;;;;;8.65;3.95;;;20.70;99.90;;;;;;4995650;28;20025;-84
2023/06/20 04:37:51;;;;;;;9.05;4.05;;;20.90;99.90;;;;;;5013085;28;20033;-84
2023/06/20 04:40:17;;;;;;;7.47;4.57;;;21.00;99.90;;;;;;4995574;28;20525;-86
2023/06/20 04:42:45;;;;;;;10.63;4.22;;;21.10;99.90;;;;;;4994917;28;20457;-85
2023/06/20 04:45:11;;;;;;;8.75;4.07;;;21.20;99.90;;;;;;4995162;28;20022;-86
2023/06/20 04:47:37;;;;;;;7.07;3.72;;;21.40;99.90;;;;;;5013761;28;20034;-86
2023/06/20 04:50:03;;;;;;;8.85;4.35;;;21.50;99.90;;;;;;5013889;28;20026;-85
2023/06/20 04:52:32;;;;;;;7.60;4.05;;;21.60;99.90;;;;;;5013030;28;20088;-85
2023/06/20 04:55:02;;;;;;;5.40;3.28;;;21.70;99.90;;;;;;4995209;28;20030;-86
2023/06/20 04:57:31;;;;;;;5.05;3.40;;;21.90;99.90;;;;;;5012827;28;20425;-86
2023/06/20 04:59:57;;;;;;;5.30;3.25;;;22.10;99.90;;;;;;4995856;28;20029;-87
2023/06/20 05:02:24;;;;;;;4.28;3.10;;;22.30;99.90;;;;;;5012892;28;20025;-86
2023/06/20 05:04:50;;;;;;;6.88;3.47;;;22.50;99.90;;;;;;4995213;28;20516;-87
2023/06/20 05:07:16;;;;;;;6.95;3.13;;;22.70;99.90;;;;;;5012282;28;20053;-85
2023/06/20 05:09:42;;;;;;;9.32;3.53;;;22.80;99.90;;;;;;5011651;28;20033;-86
2023/06/20 05:12:08;;;;;;;5.88;3.08;;;22.90;99.90;;;;;;4994988;28;20403;-86
2023/06/20 05:14:33;;;;;;;5.65;2.80;;;23.10;99.90;;;;;;4990979;28;20153;-87
2023/06/20 05:16:59;;;;;;;5.30;3.42;;;23.30;99.90;;;;;;4990724;28;20026;-86
2023/06/20 05:19:25;;;;;;;4.57;2.95;;;23.50;99.90;;;;;;4991413;28;20038;-86
2023/06/20 05:21:50;;;;;;;8.25;3.30;;;23.60;99.90;;;;;;4990985;28;20034;-84
2023/06/20 05:24:16;;;;;;;4.70;2.92;;;23.90;98.90;;;;;;4993317;28;20057;-87
2023/06/20 05:26:41;;;;;;;4.78;2.72;;;24.20;95.00;;;;;;4992766;28;20124;-87
2023/06/20 05:29:07;;;;;;;5.25;3.20;;;24.30;91.20;;;;;;4992466;28;20129;-86
2023/06/20 05:31:33;;;;;;;6.93;2.78;;;24.50;91.60;;;;;;4990795;28;20038;-86
2023/06/20 05:33:59;;;;;;;4.38;3.03;;;24.60;90.30;;;;;;4992457;28;20022;-87
2023/06/20 05:36:24;;;;;;;4.97;3.15;;;24.90;87.60;;;;;;4993493;28;20058;-86
2023/06/20 05:38:50;;;;;;;4.50;3.00;;;25.10;80.90;;;;;;4992486;28;20035;-86
2023/06/20 05:41:17;;;;;;;5.53;3.00;;;25.30;82.10;;;;;;4990974;28;20023;-86
2023/06/20 05:43:42;;;;;;;5.57;3.05;;;25.50;82.10;;;;;;4990696;28;20092;-85
2023/06/20 05:46:08;;;;;;;5.65;2.65;;;25.80;76.50;;;;;;4991912;28;20038;-86
2023/06/20 05:48:34;;;;;;;6.82;3.58;;;26.10;73.80;;;;;;4993114;28;20479;-86
2023/06/20 05:51:00;;;;;;;8.02;3.70;;;26.30;74.40;;;;;;4991610;28;20019;-86
2023/06/20 05:53:29;;;;;;;9.32;3.70;;;26.50;68.20;;;;;;4990699;28;20049;-85
2023/06/20 05:55:55;;;;;;;7.35;3.20;;;26.80;66.80;;;;;;4991979;28;20507;-84
2023/06/20 05:58:21;;;;;;;6.80;3.10;;;27.00;65.20;;;;;;4992072;28;20109;-87
2023/06/20 06:00:47;;;;;;;6.07;2.70;;;26.80;64.30;;;;;;4992147;28;20146;-86
2023/06/20 06:03:13;;;;;;;6.20;2.80;;;26.70;63.00;;;;;;4991841;28;20054;-86
2023/06/20 06:05:42;;;;;;;5.13;2.92;;;26.60;61.90;;;;;;4990932;28;20034;-86
2023/06/20 06:08:07;;;;;;;5.50;2.95;;;26.70;63.00;;;;;;4992713;28;20026;-86
2023/06/20 06:10:33;;;;;;;8.68;3.28;;;27.00;62.50;;;;;;4990454;28;20026;-84
2023/06/20 06:12:59;;;;;;;6.70;3.17;;;28.00;59.70;;;;;;4990643;28;20034;-84
2023/06/20 06:15:24;;;;;;;14.38;3.40;;;29.20;54.90;;;;;;4990497;28;20054;-86
2023/06/20 06:17:50;;;;;;;6.30;3.58;;;30.00;50.00;;;;;;4990452;28;20471;-84
2023/06/20 06:20:18;;;;;;;7.10;3.35;;;30.80;47.60;;;;;;4991192;28;20380;-86
2023/06/20 06:22:44;;;;;;;6.93;3.00;;;31.50;44.70;;;;;;4990268;28;20030;-87
2023/06/20 06:25:10;;;;;;;6.35;3.38;;;32.40;41.00;;;;;;4990471;28;20442;-85
2023/06/20 06:27:35;;;;;;;4.95;2.70;;;33.00;38.80;;;;;;4990851;28;20030;-85
2023/06/20 06:30:03;;;;;;;5.30;2.60;;;33.00;38.20;;;;;;4990386;28;20076;-86
2023/06/20 06:32:30;;;;;;;4.50;2.67;;;33.60;35.60;;;;;;4990303;28;20053;-86
2023/06/20 06:34:59;;;;;;;5.00;2.40;;;34.10;34.80;;;;;;4990478;28;20483;-85
2023/06/20 06:37:28;;;;;;;5.88;2.72;;;34.40;33.90;;;;;;4991578;28;20574;-84
2023/06/20 06:39:56;;;;;;;4.22;2.88;;;34.30;33.60;;;;;;4994413;28;20045;-86
2023/06/20 06:42:23;;;;;;;6.15;2.58;;;34.40;34.30;;;;;;4990197;28;20060;-87
2023/06/20 06:44:49;;;;;;;2.90;2.22;;;34.90;33.60;;;;;;4991041;28;20154;-86
2023/06/20 06:47:14;;;;;;;8.45;2.63;;;35.20;32.30;;;;;;4991470;28;20097;-86
2023/06/20 06:49:40;;;;;;;4.45;2.20;;;35.00;32.40;;;;;;4990997;28;20018;-86
2023/06/20 06:52:07;;;;;;;4.80;2.47;;;34.40;32.30;;;;;;4989882;28;20096;-87
2023/06/20 06:54:32;;;;;;;6.68;2.70;;;34.70;32.40;;;;;;4990826;28;20487;-87
2023/06/20 06:56:58;;;;;;;4.47;1.98;;;35.20;31.70;;;;;;4989604;28;20050;-87
2023/06/20 06:59:24;;;;;;;4.28;2.50;;;35.50;30.80;;;;;;4990833;28;20505;-88
2023/06/20 07:01:51;;;;;;;4.22;2.42;;;34.10;32.10;;;;;;4991354;28;20587;-86
2023/06/20 07:04:17;;;;;;;7.15;2.47;;;33.70;33.80;;;;;;4993307;28;20491;-87
2023/06/20 07:06:43;;;;;;;4.50;2.70;;;34.60;32.10;;;;;;4994536;28;20053;-88
2023/06/20 07:09:09;;;;;;;5.18;2.47;;;35.00;30.80;;;;;;4993314;28;20421;-89
2023/06/20 07:11:35;;;;;;;6.55;2.72;;;35.20;31.10;;;;;;4993428;28;20045;-87
2023/06/20 07:14:00;;;;;;;4.82;2.55;;;35.00;31.10;;;;;;4994451;28;20050;-87
2023/06/20 07:16:26;;;;;;;4.50;2.67;;;35.00;31.50;;;;;;4994768;28;20387;-87
2023/06/20 07:18:52;;;;;;;5.70;2.90;;;35.20;31.50;;;;;;4994400;28;20030;-86
2023/06/20 07:21:18;;;;;;;4.90;2.50;;;35.30;30.40;;;;;;4994870;28;20037;-89
2023/06/20 07:23:43;;;;;;;4.55;2.67;;;35.40;30.30;;;;;;4994223;28;20097;-87
2023/06/20 07:26:09;;;;;;;3.92;2.60;;;35.80;30.10;;;;;;4994273;28;20023;-87
2023/06/20 07:28:36;;;;;;;5.85;2.97;;;35.70;30.00;;;;;;4993292;28;20069;-87
2023/06/20 07:31:02;;;;;;;5.47;3.45;;;35.40;30.70;;;;;;4994111;28;20030;-88
2023/06/20 07:33:28;;;;;;;5.13;2.92;;;35.60;29.70;;;;;;4993122;28;20034;-88
2023/06/20 07:35:53;;;;;;;6.65;2.83;;;35.50;29.90;;;;;;4993669;28;20376;-88
2023/06/20 07:38:19;;;;;;;5.15;2.60;;;35.10;29.80;;;;;;4993758;28;20066;-86
2023/06/20 07:40:45;;;;;;;3.15;2.17;;;34.60;30.80;;;;;;4994486;28;20034;-88
2023/06/20 07:43:10;;;;;;;10.27;2.53;;;34.60;29.50;;;;;;4993728;28;20030;-87
2023/06/20 07:45:36;;;;;;;4.60;2.65;;;34.80;30.20;;;;;;4992281;28;20320;-86
2023/06/20 07:48:04;;;;;;;4.70;2.47;;;35.10;30.20;;;;;;4992384;28;20019;-87
2023/06/20 07:50:30;;;;;;;6.45;2.08;;;35.10;30.60;;;;;;4991916;28;20038;-87
2023/06/20 07:52:56;;;;;;;3.72;2.17;;;35.50;28.70;;;;;;4993499;28;20044;-89
2023/06/20 07:55:21;;;;;;;4.68;2.35;;;35.60;28.30;;;;;;4994185;28;20110;-88
2023/06/20 07:57:48;;;;;;;2.97;2.30;;;36.00;27.20;;;;;;4995273;28;20451;-88
2023/06/20 08:00:14;;;;;;;7.50;2.35;;;36.10;27.40;;;;;;4994041;28;20058;-87
2023/06/20 08:02:39;;;;;;;4.25;2.45;;;36.10;28.20;;;;;;4992449;28;20073;-88
2023/06/20 08:05:08;;;;;;;6.57;2.80;;;36.40;28.40;;;;;;4993160;28;20018;-89
2023/06/20 08:07:35;;;;;;;3.65;2.88;;;36.60;27.20;;;;;;4992015;28;20058;-89
2023/06/20 08:10:02;;;;;;;3.80;2.13;;;36.90;27.80;;;;;;4992238;28;20109;-88
2023/06/20 08:12:28;;;;;;;7.32;2.70;;;37.10;27.60;;;;;;4992249;28;20050;-88
2023/06/20 08:14:53;;;;;;;3.72;2.55;;;37.20;27.20;;;;;;4991121;28;20169;-88
2023/06/20 08:17:19;;;;;;;6.85;2.95;;;37.40;27.70;;;;;;4993282;28;20030;-89
2023/06/20 08:19:45;;;;;;;4.22;2.90;;;37.20;27.80;;;;;;4991217;28;20109;-85
2023/06/20 08:22:11;;;;;;;8.18;3.20;;;37.50;27.90;;;;;;4994095;28;20061;-86
2023/06/20 08:24:37;;;;;;;6.22;3.08;;;37.60;27.70;;;;;;4993896;28;20026;-86
2023/06/20 08:27:04;;;;;;;5.72;2.80;;;37.50;26.90;;;;;;4992388;28;20475;-85
2023/06/20 08:29:30;;;;;;;7.57;2.85;;;37.30;27.50;;;;;;4991940;28;20026;-87
2023/06/20 08:31:55;;;;;;;4.97;2.88;;;37.10;27.60;;;;;;4992756;28;20041;-85
2023/06/20 08:34:21;;;;;;;8.57;3.28;;;37.00;27.90;;;;;;4993663;28;20036;-88
2023/06/20 08:36:47;;;;;;;8.70;2.45;;;36.90;28.40;;;;;;4992071;28;20057;-88
2023/06/20 08:39:12;;;;;;;6.90;2.83;;;37.00;27.70;;;;;;4994542;28;20057;-87
2023/06/20 08:41:38;;;;;;;3.85;2.17;;;37.10;28.00;;;;;;4993139;28;20495;-90
2023/06/20 08:44:23;;;;;;;9.15;2.42;;;37.50;27.80;;;;;;4991568;28;20502;-88
2023/06/20 08:46:56;;;;;;;3.53;2.30;;;37.50;27.30;;;;;;4993301;28;20495;-90
2023/06/20 08:49:22;;;;;;;6.35;3.20;;;37.10;27.10;;;;;;4992306;28;20026;-89
2023/06/20 08:51:49;;;;;;;4.10;2.58;;;36.90;26.80;;;;;;4991537;28;20037;-88
2023/06/20 08:54:18;;;;;;;3.92;2.58;;;36.20;27.20;;;;;;4992837;28;20037;-89
2023/06/20 08:56:44;;;;;;;3.33;2.53;;;35.90;28.20;;;;;;4992141;28;20513;-89
2023/06/20 08:59:10;;;;;;;4.85;2.78;;;36.10;27.70;;;;;;4992631;28;20035;-89
2023/06/20 09:01:35;;;;;;;7.07;2.00;;;36.00;27.70;;;;;;4992173;28;20018;-90
2023/06/20 09:04:02;;;;;;;8.73;2.50;;;36.40;28.70;;;;;;4991523;28;20041;-89
2023/06/20 09:06:37;;;;;;;9.77;2.45;;;36.80;27.90;;;;;;4992983;28;20486;-88
2023/06/20 09:09:06;;;;;;;6.93;2.33;;;37.30;26.90;;;;;;4992983;28;20036;-88
2023/06/20 09:11:35;;;;;;;8.75;2.60;;;37.10;26.90;;;;;;4993584;28;20157;-88
2023/06/20 09:14:02;;;;;;;4.47;2.90;;;36.90;26.30;;;;;;4998744;28;20061;-88
2023/06/20 09:16:30;;;;;;;4.43;2.67;;;36.50;26.70;;;;;;4994184;28;20033;-87
2023/06/20 09:19:03;;;;;;;6.35;2.35;;;36.30;28.90;;;;;;4994595;28;20085;-87
2023/06/20 09:21:28;;;;;;;11.27;7.18;;;36.60;28.20;;;;;;4994844;28;20037;-90
2023/06/20 09:24:02;;;;;;;5.15;2.63;;;36.90;28.40;;;;;;4993915;28;20034;-88
2023/06/20 09:26:29;;;;;;;5.25;2.30;;;37.40;28.20;;;;;;4994059;28;20022;-89
2023/06/20 09:29:10;;;;;;;5.65;2.72;;;37.80;27.30;;;;;;4994219;28;20037;-89
2023/06/20 09:31:49;;;;;;;2.67;1.98;;;38.00;27.30;;;;;;4994383;28;20509;-86
2023/06/20 09:34:18;;;;;;;4.57;2.70;;;38.10;26.80;;;;;;4994526;28;20041;-87
2023/06/20 09:36:47;;;;;;;7.22;2.47;;;38.20;26.60;;;;;;5011805;28;20022;-86
2023/06/20 09:39:21;;;;;;;3.63;2.45;;;37.90;26.60;;;;;;5011837;28;20109;-87
2023/06/20 09:41:49;;;;;;;7.60;2.63;;;37.90;27.50;;;;;;4994550;28;20399;-85
2023/06/20 09:44:19;;;;;;;5.75;2.33;;;37.90;27.70;;;;;;4994391;28;20088;-86
2023/06/20 09:46:45;;;;;;;4.00;2.55;;;38.00;27.60;;;;;;4994929;28;20022;-87
2023/06/20 09:49:15;;;;;;;6.05;2.55;;;38.20;26.30;;;;;;4994576;28;20037;-87
2023/06/20 09:51:44;;;;;;;4.55;2.63;;;38.20;26.90;;;;;;5012089;28;20026;-86
2023/06/20 09:54:13;;;;;;;8.43;2.42;;;37.90;26.90;;;;;;4995127;28;20049;-86
2023/06/20 09:56:49;;;;;;;6.18;2.90;;;37.90;26.60;;;;;;5034290;28;20014;-87
2023/06/20 09:59:16;;;;;;;7.53;2.30;;;37.50;26.30;;;;;;5018928;28;20064;-86
2023/06/20 10:01:42;;;;;;;9.50;2.55;;;37.20;27.10;;;;;;5019087;28;20030;-89
2023/06/20 10:04:09;;;;;;;6.32;2.25;;;37.10;28.20;;;;;;4997522;28;20061;-88
2023/06/20 10:06:38;;;;;;;3.35;2.80;;;36.80;27.70;;;;;;4995309;28;20061;-86
2023/06/20 10:09:08;;;;;;;4.95;3.13;;;36.10;27.70;;;;;;4995249;28;20036;-87
2023/06/20 10:11:37;;;;;;;5.90;3.03;;;35.20;28.60;;;;;;4995580;28;20029;-87
2023/06/20 10:14:04;;;;;;;7.50;3.00;;;34.70;29.40;;;;;;4995586;28;20061;-86
2023/06/20 10:16:30;;;;;;;5.28;2.95;;;34.00;29.60;;;;;;4994765;28;20029;-89
2023/06/20 10:18:56;;;;;;;6.28;2.70;;;33.70;30.70;;;;;;5013312;28;20090;-90
2023/06/20 10:21:54;;;;;;;4.45;2.88;;;33.30;32.10;;;;;;4994123;28;20038;-91
2023/06/20 10:24:21;;;;;;;5.03;2.88;;;33.30;33.50;;;;;;4993938;28;20037;-91
2023/06/20 10:26:53;;;;;;;5.40;3.30;;;33.20;33.70;;;;;;4994311;28;20026;-89
2023/06/20 10:29:20;;;;;;;3.85;3.10;;;33.30;33.30;;;;;;4994708;28;20025;-91
2023/06/20 10:32:05;;;;;;;5.40;2.95;;;33.20;33.80;;;;;;5000371;28;20041;-90
2023/06/20 10:34:40;;;;;;;13.25;3.38;;;33.30;33.30;;;;;;4995351;28;20128;-90
2023/06/20 10:37:13;;;;;;;7.30;3.75;;;33.30;33.60;;;;;;5013588;28;20057;-90
2023/06/20 10:39:49;;;;;;;8.40;3.58;;;33.10;34.30;;;;;;4998069;28;20026;-88
2023/06/20 10:42:43;;;;;;;6.55;3.25;;;32.70;33.00;;;;;;4998506;28;20072;-90
2023/06/20 10:45:19;;;;;;;5.40;3.10;;;32.60;33.30;;;;;;4998300;28;20041;-91
2023/06/20 10:47:45;;;;;;;10.25;3.45;;;32.50;34.80;;;;;;4998633;28;20026;-89
2023/06/20 10:50:12;;;;;;;5.57;3.20;;;32.20;34.70;;;;;;4998832;28;20033;-89
2023/06/20 10:52:39;;;;;;;5.07;3.15;;;32.30;34.70;;;;;;5015984;28;20038;-90
2023/06/20 10:55:09;;;;;;;6.07;3.67;;;31.90;34.30;;;;;;5016095;28;20494;-89
2023/06/20 10:57:35;;;;;;;5.13;3.25;;;31.70;34.70;;;;;;4998008;28;20034;-90
2023/06/20 11:00:15;;;;;;;4.75;3.53;;;31.40;35.90;;;;;;4997858;28;20041;-90
2023/06/20 11:02:41;;;;;;;4.43;3.55;;;31.50;36.30;;;;;;4998063;28;20068;-90
2023/06/20 11:05:09;;;;;;;6.35;3.03;;;31.70;36.80;;;;;;5015723;28;20040;-89
2023/06/20 11:07:36;;;;;;;10.15;2.92;;;31.80;37.00;;;;;;4998430;28;20036;-91
2023/06/20 11:10:13;;;;;;;6.47;3.13;;;32.00;36.50;;;;;;4997731;28;20034;-90
2023/06/20 11:12:42;;;;;;;7.82;3.42;;;31.80;36.20;;;;;;5015989;28;20034;-91
2023/06/20 11:15:24;;;;;;;4.90;3.55;;;31.60;36.40;;;;;;4997283;28;20054;-92
2023/06/20 11:17:50;;;;;;;6.15;3.45;;;31.60;38.20;;;;;;4997982;28;20026;-90
2023/06/20 11:20:19;;;;;;;11.23;3.85;;;31.70;38.10;;;;;;4997785;28;20029;-92
2023/06/20 11:22:46;;;;;;;5.28;3.45;;;31.80;38.00;;;;;;4997809;28;20033;-91
2023/06/20 11:25:12;;;;;;;6.35;3.58;;;31.90;37.70;;;;;;4997346;28;20026;-90
2023/06/20 11:27:38;;;;;;;5.30;3.70;;;32.00;37.10;;;;;;4997664;28;20061;-89
2023/06/20 11:30:06;;;;;;;10.82;3.65;;;32.00;36.80;;;;;;4997928;28;20073;-91
2023/06/20 11:32:31;;;;;;;6.93;3.35;;;32.20;37.10;;;;;;4997207;28;20038;-89
2023/06/20 11:35:02;;;;;;;4.45;3.25;;;32.30;36.20;;;;;;4997159;28;20478;-90
2023/06/20 11:37:29;;;;;;;6.00;4.38;;;32.50;36.20;;;;;;4997231;28;20491;-90
2023/06/20 11:39:55;;;;;;;4.65;3.45;;;32.60;36.00;;;;;;4996922;28;20034;-92
2023/06/20 11:42:21;;;;;;;18.85;17.05;;;32.60;35.40;;;;;;4997769;28;20116;-89
2023/06/20 11:44:47;;;;;;;11.60;5.13;;;32.70;35.50;;;;;;4997123;28;20033;-90
2023/06/20 11:47:13;;;;;;;7.97;3.47;;;32.80;35.90;;;;;;4997090;28;20029;-90
2023/06/20 11:49:40;;;;;;;5.43;3.58;;;32.80;35.20;;;;;;4996840;28;20608;-90
2023/06/20 11:52:07;;;;;;;5.63;3.10;;;32.80;35.60;;;;;;5014388;28;20034;-92
2023/06/20 11:55:04;;;;;;;8.18;3.90;;;32.70;35.90;;;;;;5014248;28;20045;-89
2023/06/20 11:57:31;;;;;;;7.30;3.83;;;32.60;32.50;;;;;;4993584;28;20125;-91
2023/06/20 11:59:59;;;;;;;5.40;4.13;;;32.30;33.20;;;;;;4997101;28;20033;-91
2023/06/20 12:02:26;;;;;;;10.98;3.58;;;32.00;33.70;;;;;;4996937;28;20479;-90
2023/06/20 12:04:58;;;;;;;5.50;3.63;;;31.80;35.20;;;;;;5014260;28;20129;-90
2023/06/20 12:07:25;;;;;;;5.50;3.55;;;32.00;35.60;;;;;;4996856;28;20026;-90
2023/06/20 12:09:51;;;;;;;7.40;3.60;;;32.10;36.80;;;;;;4996497;28;20029;-90
2023/06/20 12:12:17;;;;;;;5.25;3.90;;;32.10;35.70;;;;;;4996183;28;20026;-90
2023/06/20 12:14:47;;;;;;;5.78;3.50;;;32.30;36.40;;;;;;4993121;28;20096;-91
2023/06/20 12:17:13;;;;;;;4.20;3.28;;;32.30;35.70;;;;;;4993236;28;20024;-91
2023/06/20 12:19:52;;;;;;;6.82;3.70;;;32.30;35.90;;;;;;4993159;28;20495;-89
2023/06/20 12:22:18;;;;;;;4.30;3.17;;;32.30;34.30;;;;;;4997982;28;20057;-89
2023/06/20 12:24:45;;;;;;;4.65;3.55;;;32.30;33.90;;;;;;4996829;28;20065;-91
2023/06/20 12:27:11;;;;;;;4.60;3.60;;;32.20;34.10;;;;;;4993669;28;20030;-91
2023/06/20 12:29:37;;;;;;;7.38;4.03;;;32.10;33.90;;;;;;4994753;28;20098;-90
2023/06/20 12:32:04;;;;;;;5.72;3.47;;;32.00;33.80;;;;;;4993397;28;20125;-90
2023/06/20 12:34:29;;;;;;;4.82;3.30;;;32.00;35.80;;;;;;4992937;28;20060;-90
2023/06/20 12:36:55;;;;;;;6.72;3.78;;;32.10;35.90;;;;;;4992880;28;20121;-90
2023/06/20 12:39:21;;;;;;;7.55;3.85;;;32.10;36.10;;;;;;4993992;28;20037;-90
2023/06/20 12:41:46;;;;;;;6.38;3.60;;;32.00;34.10;;;;;;4992440;28;20181;-90
2023/06/20 12:44:12;;;;;;;6.40;3.13;;;31.90;34.60;;;;;;4992635;28;20038;-88
2023/06/20 12:46:40;;;;;;;9.35;4.38;;;31.70;36.00;;;;;;4993279;28;20037;-89
2023/06/20 12:49:06;;;;;;;9.38;3.45;;;31.70;36.50;;;;;;4992694;28;20475;-89